Time;durP1;ratioP1;P1;durP2;ratioP2;P2;SDS_P1;SDS_P2;PMS_P1;PMS_P2;Temp;Humidity;BMP_temperature;BMP_pressure;BME280_temperature;BME280_humidity;BME280_pressure;Samples;Min_cycle;Max_cycle;Signal;HPM_P1;HPM_P2
2021/09/09 00:01:48;;;;;;;12.83;10.50;;;16.90;99.90;;;;;;5055626;28;20185;-66
2021/09/09 00:04:17;;;;;;;12.20;10.47;;;16.90;99.90;;;;;;5041785;28;20253;-65
2021/09/09 00:06:45;;;;;;;12.90;10.70;;;16.90;99.90;;;;;;5057888;28;20189;-65
2021/09/09 00:09:14;;;;;;;14.37;10.70;;;16.90;99.90;;;;;;5059061;28;20184;-65
2021/09/09 00:11:42;;;;;;;17.77;10.43;;;16.90;99.90;;;;;;5041640;28;20590;-65
2021/09/09 00:14:10;;;;;;;13.13;10.77;;;16.90;99.90;;;;;;5057696;28;20201;-65
2021/09/09 00:16:40;;;;;;;15.50;11.80;;;16.90;99.90;;;;;;5057964;28;20203;-66
2021/09/09 00:19:11;;;;;;;15.17;11.50;;;16.90;99.90;;;;;;5055864;28;20246;-66
2021/09/09 00:21:39;;;;;;;15.23;10.63;;;16.80;99.90;;;;;;5058277;28;20185;-66
2021/09/09 00:24:08;;;;;;;15.10;10.87;;;16.80;99.90;;;;;;5054592;28;20424;-66
2021/09/09 00:26:36;;;;;;;12.43;10.73;;;16.80;99.90;;;;;;5056524;28;20225;-66
2021/09/09 00:29:05;;;;;;;14.20;10.90;;;16.70;99.90;;;;;;5057723;28;20189;-66
2021/09/09 00:31:33;;;;;;;15.10;10.57;;;16.70;99.90;;;;;;5056216;28;20185;-66
2021/09/09 00:34:01;;;;;;;14.60;11.03;;;16.70;99.90;;;;;;5051572;28;20209;-66
2021/09/09 00:36:31;;;;;;;13.03;10.57;;;16.60;99.90;;;;;;5040984;28;20214;-65
2021/09/09 00:38:59;;;;;;;15.97;10.87;;;16.60;99.90;;;;;;5054189;28;20185;-66
2021/09/09 00:41:30;;;;;;;11.00;9.90;;;16.60;99.90;;;;;;5043885;28;20184;-66
2021/09/09 00:43:59;;;;;;;12.10;9.77;;;16.60;99.90;;;;;;5059932;28;20185;-66
2021/09/09 00:46:27;;;;;;;11.23;10.10;;;16.50;99.90;;;;;;5058131;28;20192;-66
2021/09/09 00:48:56;;;;;;;13.47;10.43;;;16.50;99.90;;;;;;5057413;28;20255;-65
2021/09/09 00:51:24;;;;;;;16.33;10.67;;;16.40;99.90;;;;;;5040828;28;20442;-65
2021/09/09 00:53:54;;;;;;;14.57;10.30;;;16.40;99.90;;;;;;5056592;28;20215;-66
2021/09/09 00:56:23;;;;;;;12.07;10.70;;;16.40;99.90;;;;;;5055888;28;20211;-66
2021/09/09 00:58:51;;;;;;;14.43;11.30;;;16.30;99.90;;;;;;5042907;28;20215;-66
2021/09/09 01:01:19;;;;;;;13.37;10.80;;;16.30;99.90;;;;;;5060813;28;20408;-66
2021/09/09 01:03:48;;;;;;;12.27;10.57;;;16.30;99.90;;;;;;5060416;28;21525;-66
2021/09/09 01:06:18;;;;;;;14.47;11.30;;;16.30;99.90;;;;;;5062146;28;20278;-66
2021/09/09 01:08:46;;;;;;;12.97;10.20;;;16.30;99.90;;;;;;5060381;28;20361;-66
2021/09/09 01:11:16;;;;;;;15.00;11.00;;;16.20;99.90;;;;;;5042384;28;20216;-65
2021/09/09 01:13:50;;;;;;;12.97;10.80;;;16.20;99.90;;;;;;5059666;28;20219;-65
2021/09/09 01:16:19;;;;;;;14.87;10.67;;;16.20;99.90;;;;;;5060971;28;20227;-66
2021/09/09 01:18:47;;;;;;;17.47;11.37;;;16.20;99.90;;;;;;5041342;28;20196;-66
2021/09/09 01:21:16;;;;;;;15.27;11.83;;;16.20;99.90;;;;;;5057848;28;20230;-65
2021/09/09 01:23:48;;;;;;;15.23;11.80;;;16.20;99.90;;;;;;5056821;28;20221;-66
2021/09/09 01:26:18;;;;;;;16.47;11.33;;;16.10;99.90;;;;;;5056457;28;20213;-66
2021/09/09 01:28:46;;;;;;;15.13;11.50;;;16.10;99.90;;;;;;5055025;28;20219;-65
2021/09/09 01:31:15;;;;;;;12.17;10.87;;;16.10;99.90;;;;;;5057676;28;20180;-66
2021/09/09 01:33:44;;;;;;;14.53;11.60;;;16.10;99.90;;;;;;5058190;28;20177;-66
2021/09/09 01:36:12;;;;;;;14.87;11.10;;;16.10;99.90;;;;;;5059950;28;20196;-65
2021/09/09 01:38:41;;;;;;;14.57;11.43;;;16.10;99.90;;;;;;5062423;28;20319;-66
2021/09/09 01:41:09;;;;;;;14.13;11.10;;;16.10;99.90;;;;;;5060947;28;20177;-66
2021/09/09 01:43:39;;;;;;;14.60;10.67;;;16.10;99.90;;;;;;5059824;28;20432;-66
2021/09/09 01:46:07;;;;;;;18.03;11.53;;;16.10;99.90;;;;;;5043838;28;20196;-65
2021/09/09 01:48:35;;;;;;;15.03;11.60;;;16.10;99.90;;;;;;5057817;28;20260;-66
2021/09/09 01:51:04;;;;;;;13.50;10.67;;;16.10;99.90;;;;;;5055812;28;20353;-65
2021/09/09 01:53:32;;;;;;;13.63;10.97;;;16.10;99.90;;;;;;5062192;28;20185;-66
2021/09/09 01:56:01;;;;;;;13.20;11.23;;;16.10;99.90;;;;;;5061131;28;20217;-65
2021/09/09 01:58:29;;;;;;;16.57;11.07;;;16.10;99.90;;;;;;5057173;28;20535;-66
2021/09/09 02:00:59;;;;;;;14.00;10.73;;;16.10;99.90;;;;;;5042923;28;20181;-66
2021/09/09 02:03:28;;;;;;;12.77;10.77;;;16.10;99.90;;;;;;5059818;28;20239;-65
2021/09/09 02:05:57;;;;;;;14.30;11.30;;;16.00;99.90;;;;;;5058465;28;20181;-66
2021/09/09 02:08:25;;;;;;;14.33;11.37;;;16.00;99.90;;;;;;5058234;28;20181;-66
2021/09/09 02:10:53;;;;;;;12.23;10.50;;;16.00;99.90;;;;;;5058089;28;20184;-66
2021/09/09 02:13:22;;;;;;;13.77;10.90;;;16.10;99.90;;;;;;5059519;28;20184;-66
2021/09/09 02:15:51;;;;;;;14.13;11.63;;;16.10;99.90;;;;;;5055730;28;20228;-66
2021/09/09 02:18:21;;;;;;;16.03;11.87;;;16.20;99.90;;;;;;5039389;28;20172;-65
2021/09/09 02:20:50;;;;;;;15.67;11.37;;;16.30;99.90;;;;;;5062529;28;20239;-65
2021/09/09 02:23:18;;;;;;;16.40;11.77;;;16.40;99.90;;;;;;5041532;28;20181;-65
2021/09/09 02:25:47;;;;;;;15.03;10.80;;;16.50;99.90;;;;;;5064333;28;20216;-66
2021/09/09 02:28:15;;;;;;;15.03;11.07;;;16.50;99.90;;;;;;5041401;28;20211;-65
2021/09/09 02:30:45;;;;;;;17.50;12.20;;;16.50;99.90;;;;;;5063911;28;20177;-66
2021/09/09 02:33:13;;;;;;;17.33;12.20;;;16.50;99.90;;;;;;5058830;28;20196;-65
2021/09/09 02:35:43;;;;;;;14.80;12.07;;;16.50;99.90;;;;;;5065121;28;20208;-65
2021/09/09 02:38:12;;;;;;;15.40;11.47;;;16.60;99.90;;;;;;5061557;28;20242;-65
2021/09/09 02:40:40;;;;;;;18.47;12.03;;;16.70;99.90;;;;;;5055234;28;20208;-65
2021/09/09 02:43:09;;;;;;;21.33;11.87;;;16.70;99.90;;;;;;5058941;28;20197;-65
2021/09/09 02:45:37;;;;;;;15.33;11.30;;;16.70;99.90;;;;;;5067969;28;20193;-66
2021/09/09 02:48:06;;;;;;;16.67;11.03;;;16.70;99.90;;;;;;5058549;28;20184;-66
2021/09/09 02:50:34;;;;;;;15.20;11.13;;;16.70;99.90;;;;;;5057477;28;20191;-66
2021/09/09 02:53:04;;;;;;;13.77;10.70;;;16.60;99.90;;;;;;5055471;28;20178;-65
2021/09/09 02:55:33;;;;;;;14.10;11.17;;;16.50;99.90;;;;;;5060459;28;20232;-66
2021/09/09 02:58:01;;;;;;;18.70;12.20;;;16.40;99.90;;;;;;5060540;28;20182;-65
2021/09/09 03:00:30;;;;;;;16.90;10.77;;;16.60;99.90;;;;;;5040499;28;20193;-65
2021/09/09 03:02:58;;;;;;;15.67;12.07;;;16.70;99.90;;;;;;5057251;28;20240;-66
2021/09/09 03:05:27;;;;;;;16.10;12.27;;;16.80;99.90;;;;;;5057295;28;20193;-65
2021/09/09 03:07:55;;;;;;;14.73;11.53;;;16.80;99.90;;;;;;5024806;28;20231;-66
2021/09/09 03:10:25;;;;;;;18.20;11.57;;;16.80;99.90;;;;;;5060772;28;20494;-66
2021/09/09 03:12:53;;;;;;;16.00;11.60;;;16.90;99.90;;;;;;5058729;28;20473;-65
2021/09/09 03:15:26;;;;;;;14.60;11.63;;;16.80;99.90;;;;;;5024902;28;20216;-65
2021/09/09 03:18:25;;;;;;;15.27;10.77;;;16.80;99.90;;;;;;5052788;28;20375;-65
2021/09/09 03:20:58;;;;;;;20.30;11.30;;;16.70;99.90;;;;;;5044668;28;20363;-65
2021/09/09 03:23:28;;;;;;;20.80;11.17;;;16.70;99.90;;;;;;5024692;28;20203;-65
2021/09/09 03:26:02;;;;;;;19.40;11.90;;;16.70;99.90;;;;;;5023981;28;20217;-65
2021/09/09 03:28:31;;;;;;;15.13;10.90;;;16.70;99.90;;;;;;5042401;28;20339;-65
2021/09/09 03:31:00;;;;;;;15.63;10.30;;;16.70;99.90;;;;;;5042641;28;20447;-65
2021/09/09 03:33:35;;;;;;;20.33;11.20;;;16.70;99.90;;;;;;5036412;28;20200;-65
2021/09/09 03:36:08;;;;;;;15.20;10.90;;;16.70;99.90;;;;;;5026349;28;20358;-66
2021/09/09 03:39:25;;;;;;;14.53;10.53;;;16.80;99.90;;;;;;5057203;28;20181;-65
2021/09/09 03:41:55;;;;;;;15.57;10.97;;;16.80;99.90;;;;;;5040957;28;20207;-66
2021/09/09 03:44:24;;;;;;;17.17;11.73;;;16.80;99.90;;;;;;5038997;28;20184;-65
2021/09/09 03:46:52;;;;;;;14.90;11.50;;;16.80;99.90;;;;;;5053914;28;20203;-66
2021/09/09 03:49:20;;;;;;;13.50;10.83;;;16.80;99.90;;;;;;5058846;28;20247;-65
2021/09/09 03:51:49;;;;;;;14.63;10.90;;;16.80;99.90;;;;;;5042980;28;20181;-66
2021/09/09 03:54:17;;;;;;;15.67;11.27;;;16.80;99.90;;;;;;5040561;28;20184;-65
2021/09/09 03:56:45;;;;;;;15.00;12.00;;;16.70;99.90;;;;;;5054536;28;20255;-66
2021/09/09 03:59:15;;;;;;;17.50;11.87;;;16.70;99.90;;;;;;5039669;28;20183;-66
2021/09/09 04:01:44;;;;;;;15.90;11.43;;;16.80;99.90;;;;;;5055452;28;20428;-65
2021/09/09 04:04:13;;;;;;;13.37;10.87;;;16.80;99.90;;;;;;5053211;28;20188;-65
2021/09/09 04:06:41;;;;;;;13.93;10.70;;;16.90;99.90;;;;;;5058415;28;20185;-65
2021/09/09 04:09:09;;;;;;;15.17;10.97;;;16.90;99.90;;;;;;5058263;28;20181;-65
2021/09/09 04:11:38;;;;;;;14.03;10.77;;;16.90;99.90;;;;;;5058640;28;20208;-66
2021/09/09 04:14:06;;;;;;;13.83;10.80;;;16.90;99.90;;;;;;5056616;28;20207;-65
2021/09/09 04:16:36;;;;;;;15.67;11.20;;;17.00;99.90;;;;;;5057259;28;20371;-65
2021/09/09 04:19:04;;;;;;;18.33;11.43;;;17.10;99.90;;;;;;5055918;28;20180;-65
2021/09/09 04:21:33;;;;;;;12.73;10.50;;;17.10;99.90;;;;;;5055958;28;20340;-65
2021/09/09 04:24:01;;;;;;;13.97;10.67;;;17.30;99.90;;;;;;5057467;28;20435;-65
2021/09/09 04:26:30;;;;;;;12.93;10.63;;;17.20;99.90;;;;;;5058971;28;20355;-66
2021/09/09 04:28:58;;;;;;;19.90;11.37;;;17.50;99.90;;;;;;5041974;28;20188;-65
2021/09/09 04:31:26;;;;;;;13.33;11.27;;;17.50;99.90;;;;;;5055388;28;20549;-66
2021/09/09 04:33:56;;;;;;;16.57;11.50;;;17.50;99.90;;;;;;5024479;28;20300;-65
2021/09/09 04:36:25;;;;;;;16.13;11.20;;;17.60;99.90;;;;;;5060116;28;20246;-65
2021/09/09 04:38:53;;;;;;;19.60;12.13;;;17.70;99.90;;;;;;5067649;28;20173;-65
2021/09/09 04:41:22;;;;;;;17.13;12.00;;;17.80;99.90;;;;;;5061053;28;20201;-65
2021/09/09 04:43:50;;;;;;;19.50;12.57;;;17.90;99.90;;;;;;5061472;28;20192;-65
2021/09/09 04:46:19;;;;;;;16.57;12.73;;;17.90;99.90;;;;;;5063130;28;20226;-65
2021/09/09 04:48:47;;;;;;;20.37;12.53;;;18.00;99.90;;;;;;5062027;28;20670;-65
2021/09/09 04:51:17;;;;;;;16.73;13.13;;;18.10;99.90;;;;;;5059967;28;20196;-66
2021/09/09 04:53:45;;;;;;;14.80;12.77;;;18.20;99.90;;;;;;5056496;28;20247;-66
2021/09/09 04:56:14;;;;;;;17.27;13.73;;;18.20;99.90;;;;;;5067675;28;20199;-65
2021/09/09 04:58:42;;;;;;;20.63;14.77;;;18.30;99.90;;;;;;5065483;28;20176;-66
2021/09/09 05:01:11;;;;;;;41.70;14.30;;;18.30;99.90;;;;;;5062165;28;20234;-65
2021/09/09 05:03:39;;;;;;;18.83;14.73;;;18.30;99.90;;;;;;5063412;28;20208;-66
2021/09/09 05:06:08;;;;;;;24.23;15.07;;;18.30;99.90;;;;;;5059416;28;20189;-66
2021/09/09 05:08:38;;;;;;;18.43;14.43;;;18.30;99.90;;;;;;5047246;28;20394;-65
2021/09/09 05:11:09;;;;;;;20.80;14.10;;;18.30;99.90;;;;;;5038155;28;20345;-65
2021/09/09 05:13:38;;;;;;;25.00;15.67;;;18.50;99.90;;;;;;5042829;28;20478;-65
2021/09/09 05:16:06;;;;;;;22.37;14.83;;;18.50;99.90;;;;;;5059576;28;20204;-65
2021/09/09 05:18:35;;;;;;;20.63;13.77;;;18.50;99.90;;;;;;5056880;28;20394;-65
2021/09/09 05:21:03;;;;;;;22.60;15.77;;;18.50;99.90;;;;;;5059776;28;20205;-66
2021/09/09 05:23:31;;;;;;;20.67;14.33;;;18.60;99.90;;;;;;5059076;28;20272;-65
2021/09/09 05:26:01;;;;;;;17.70;13.90;;;18.60;99.90;;;;;;5054039;28;20412;-65
2021/09/09 05:28:29;;;;;;;20.13;15.40;;;18.60;99.90;;;;;;5063714;28;20411;-65
2021/09/09 05:30:58;;;;;;;22.33;14.93;;;18.60;99.90;;;;;;5061618;28;20209;-65
2021/09/09 05:33:26;;;;;;;16.53;14.10;;;18.70;99.90;;;;;;5058812;28;20188;-66
2021/09/09 05:35:54;;;;;;;19.40;14.93;;;18.70;99.90;;;;;;5062621;28;20176;-65
2021/09/09 05:38:22;;;;;;;22.20;14.93;;;18.70;99.90;;;;;;5061741;28;20197;-65
2021/09/09 05:40:51;;;;;;;24.60;15.50;;;18.60;99.90;;;;;;5062352;28;20190;-66
2021/09/09 05:43:20;;;;;;;23.53;15.23;;;18.60;99.90;;;;;;5053081;28;20177;-65
2021/09/09 05:45:49;;;;;;;17.97;15.00;;;18.50;99.90;;;;;;5059293;28;20251;-66
2021/09/09 05:48:17;;;;;;;19.20;15.50;;;18.60;99.90;;;;;;5059208;28;20268;-65
2021/09/09 05:50:45;;;;;;;21.43;14.73;;;18.60;99.90;;;;;;5062139;28;20188;-65
2021/09/09 05:53:14;;;;;;;26.87;15.60;;;18.70;99.90;;;;;;5059377;28;20181;-66
2021/09/09 05:55:42;;;;;;;18.27;15.03;;;18.70;99.90;;;;;;5059220;28;20189;-65
2021/09/09 05:58:11;;;;;;;20.60;14.57;;;18.80;99.90;;;;;;5060034;28;20379;-65
2021/09/09 06:00:40;;;;;;;24.13;15.40;;;18.80;99.90;;;;;;5061362;28;20188;-65
2021/09/09 06:03:09;;;;;;;27.63;15.80;;;18.80;99.90;;;;;;5064518;28;20252;-65
2021/09/09 06:05:39;;;;;;;19.87;15.43;;;18.90;99.90;;;;;;5066321;28;20355;-66
2021/09/09 06:08:08;;;;;;;25.63;15.87;;;18.80;99.90;;;;;;5070468;28;20180;-66
2021/09/09 06:10:36;;;;;;;21.47;16.00;;;18.80;99.90;;;;;;5063071;28;20184;-66
2021/09/09 06:13:04;;;;;;;21.37;14.67;;;18.80;99.90;;;;;;5067554;28;20446;-65
2021/09/09 06:15:33;;;;;;;21.87;15.83;;;18.90;99.90;;;;;;5065736;28;20444;-66
2021/09/09 06:18:02;;;;;;;21.03;14.80;;;18.80;99.90;;;;;;5063657;28;20258;-65
2021/09/09 06:20:31;;;;;;;19.47;14.87;;;18.80;99.90;;;;;;5058206;28;20193;-65
2021/09/09 06:22:59;;;;;;;16.73;14.60;;;18.80;99.90;;;;;;5061750;28;20259;-66
2021/09/09 06:25:28;;;;;;;24.03;16.57;;;18.90;99.90;;;;;;5062291;28;20212;-66
2021/09/09 06:27:56;;;;;;;21.87;15.60;;;18.90;99.90;;;;;;5066077;28;20195;-66
2021/09/09 06:30:25;;;;;;;21.30;15.97;;;18.90;99.90;;;;;;5059851;28;20184;-66
2021/09/09 06:32:53;;;;;;;20.77;16.03;;;19.10;99.90;;;;;;5057902;28;20210;-65
2021/09/09 06:35:23;;;;;;;24.00;16.97;;;19.00;99.90;;;;;;5056155;28;20195;-65
2021/09/09 06:37:53;;;;;;;21.10;16.40;;;19.00;99.90;;;;;;5058094;28;20303;-65
2021/09/09 06:40:21;;;;;;;21.17;15.57;;;19.00;99.90;;;;;;5058041;28;20181;-65
2021/09/09 06:42:49;;;;;;;20.83;14.83;;;19.10;99.90;;;;;;5054364;28;20432;-65
2021/09/09 06:45:18;;;;;;;22.40;15.50;;;19.10;99.90;;;;;;5058882;28;20188;-65
2021/09/09 06:47:46;;;;;;;21.07;16.30;;;19.10;99.90;;;;;;5057939;28;20416;-65
2021/09/09 06:50:15;;;;;;;24.50;16.80;;;19.10;99.90;;;;;;5058802;28;20189;-65
2021/09/09 06:52:44;;;;;;;20.37;15.93;;;19.20;99.90;;;;;;5061704;28;20235;-66
2021/09/09 06:55:13;;;;;;;22.17;16.03;;;19.40;99.90;;;;;;5060362;28;20459;-66
2021/09/09 06:57:42;;;;;;;18.73;15.10;;;19.50;99.90;;;;;;5054770;28;20733;-65
2021/09/09 07:00:11;;;;;;;30.27;16.23;;;19.70;99.90;;;;;;5054028;28;20188;-65
2021/09/09 07:02:42;;;;;;;18.80;15.23;;;20.00;99.90;;;;;;5036079;28;20188;-65
2021/09/09 07:05:12;;;;;;;18.67;15.77;;;20.10;99.90;;;;;;5060527;28;20751;-65
2021/09/09 07:07:40;;;;;;;20.93;15.00;;;20.00;99.90;;;;;;5060847;28;20177;-65
2021/09/09 07:10:11;;;;;;;17.63;14.27;;;20.00;99.90;;;;;;5060031;28;20185;-65
2021/09/09 07:12:39;;;;;;;19.77;14.23;;;20.10;99.90;;;;;;5061593;28;20184;-65
2021/09/09 07:15:08;;;;;;;20.37;14.70;;;20.10;99.90;;;;;;5044080;28;20176;-65
2021/09/09 07:17:37;;;;;;;19.53;14.23;;;20.30;99.90;;;;;;5060459;28;20336;-65
2021/09/09 07:20:07;;;;;;;15.77;13.30;;;20.40;99.90;;;;;;5058160;28;20180;-66
2021/09/09 07:22:35;;;;;;;19.00;13.17;;;20.50;99.90;;;;;;5037396;28;20276;-65
2021/09/09 07:25:04;;;;;;;21.80;13.33;;;20.60;99.90;;;;;;5059825;28;20452;-66
2021/09/09 07:27:34;;;;;;;18.50;13.57;;;20.80;99.90;;;;;;5059547;28;20430;-66
2021/09/09 07:30:03;;;;;;;19.30;13.87;;;20.80;99.90;;;;;;5060510;28;20193;-65
2021/09/09 07:32:33;;;;;;;14.77;12.53;;;20.90;99.90;;;;;;5054851;28;20204;-66
2021/09/09 07:35:01;;;;;;;19.83;13.47;;;20.90;99.90;;;;;;5058188;28;20184;-65
2021/09/09 07:37:30;;;;;;;16.37;13.00;;;21.00;99.90;;;;;;5058831;28;20408;-65
2021/09/09 07:39:58;;;;;;;16.53;12.97;;;20.90;99.90;;;;;;5054582;28;20185;-65
2021/09/09 07:42:26;;;;;;;18.43;12.77;;;21.00;99.90;;;;;;5049856;28;20188;-66
2021/09/09 07:44:56;;;;;;;15.30;11.63;;;21.10;99.90;;;;;;5055374;28;20207;-65
2021/09/09 07:47:25;;;;;;;14.83;12.10;;;21.00;99.90;;;;;;5036167;28;20169;-65
2021/09/09 07:49:54;;;;;;;18.47;13.03;;;21.20;99.90;;;;;;5039493;28;20436;-66
2021/09/09 07:52:22;;;;;;;15.40;12.13;;;21.20;99.90;;;;;;5054314;28;20339;-65
2021/09/09 07:54:51;;;;;;;15.93;11.90;;;21.30;99.90;;;;;;5056241;28;20291;-65
2021/09/09 07:57:19;;;;;;;16.37;12.37;;;21.60;99.90;;;;;;5056552;28;20216;-65
2021/09/09 07:59:51;;;;;;;14.50;11.47;;;21.80;99.90;;;;;;5055848;28;20188;-65
2021/09/09 08:02:21;;;;;;;23.00;11.67;;;21.90;99.90;;;;;;5055941;28;20319;-66
2021/09/09 08:04:50;;;;;;;15.97;11.50;;;22.10;99.90;;;;;;5053994;28;20212;-66
2021/09/09 08:07:22;;;;;;;18.93;11.70;;;22.20;99.90;;;;;;5053790;28;20453;-66
2021/09/09 08:09:50;;;;;;;15.80;11.47;;;22.20;99.90;;;;;;5055101;28;20193;-66
2021/09/09 08:12:18;;;;;;;14.73;10.23;;;22.30;99.90;;;;;;5054869;28;20231;-65
2021/09/09 08:14:47;;;;;;;17.23;10.77;;;22.60;99.90;;;;;;5041478;28;20336;-66
2021/09/09 08:17:15;;;;;;;18.07;10.77;;;22.80;99.90;;;;;;5059351;28;20233;-65
2021/09/09 08:19:45;;;;;;;13.93;10.93;;;22.80;99.90;;;;;;5059603;28;20197;-66
2021/09/09 08:22:13;;;;;;;11.97;10.00;;;22.80;99.90;;;;;;5057545;28;20209;-67
2021/09/09 08:24:41;;;;;;;11.47;9.93;;;22.80;99.90;;;;;;5039986;28;20219;-67
2021/09/09 08:27:10;;;;;;;11.90;9.40;;;22.90;99.90;;;;;;5057460;28;20217;-66
2021/09/09 08:29:38;;;;;;;17.17;10.70;;;23.00;99.90;;;;;;5059161;28;20204;-66
2021/09/09 08:32:07;;;;;;;12.73;10.30;;;23.10;99.90;;;;;;5039541;28;20316;-66
2021/09/09 08:34:35;;;;;;;13.73;10.13;;;23.10;99.90;;;;;;5057429;28;20185;-66
2021/09/09 08:37:05;;;;;;;12.13;9.73;;;23.30;99.90;;;;;;5056065;28;20219;-66
2021/09/09 08:39:34;;;;;;;10.13;9.07;;;23.70;99.90;;;;;;5056944;28;20664;-66
2021/09/09 08:42:03;;;;;;;11.27;10.07;;;24.00;99.90;;;;;;5057166;28;20303;-66
2021/09/09 08:44:31;;;;;;;14.63;9.40;;;23.90;99.90;;;;;;5059089;28;20228;-66
2021/09/09 08:47:01;;;;;;;14.63;8.80;;;23.80;99.90;;;;;;5059004;28;20191;-66
2021/09/09 08:49:30;;;;;;;15.80;8.83;;;23.80;99.90;;;;;;5058003;28;20186;-66
2021/09/09 08:51:59;;;;;;;12.10;8.53;;;24.10;99.90;;;;;;5059869;28;20181;-66
2021/09/09 08:54:29;;;;;;;9.37;8.37;;;24.00;99.90;;;;;;5056155;28;20181;-65
2021/09/09 08:56:57;;;;;;;10.23;8.10;;;24.20;99.90;;;;;;5037465;28;20230;-66
2021/09/09 08:59:25;;;;;;;10.07;7.67;;;24.30;99.90;;;;;;5060645;28;20210;-66
2021/09/09 09:02:05;;;;;;;8.83;7.70;;;24.20;99.90;;;;;;5060387;28;20187;-66
2021/09/09 09:04:35;;;;;;;11.70;7.93;;;24.20;99.90;;;;;;5054267;28;20456;-66
2021/09/09 09:07:05;;;;;;;9.90;8.20;;;24.20;99.90;;;;;;5055895;28;20293;-66
2021/09/09 09:09:37;;;;;;;12.00;7.70;;;24.20;99.90;;;;;;5053956;28;20191;-66
2021/09/09 09:12:07;;;;;;;8.30;7.20;;;24.40;99.90;;;;;;5060218;28;20208;-66
2021/09/09 09:14:36;;;;;;;8.80;7.40;;;24.50;99.90;;;;;;5041148;28;20377;-67
2021/09/09 09:17:06;;;;;;;8.20;7.07;;;24.50;99.90;;;;;;5057830;28;20336;-66
2021/09/09 09:19:37;;;;;;;9.10;7.50;;;24.40;99.90;;;;;;5062849;28;20495;-66
2021/09/09 09:22:08;;;;;;;9.57;7.00;;;24.30;99.90;;;;;;5062574;28;20260;-66
2021/09/09 09:24:46;;;;;;;13.67;7.33;;;24.40;99.90;;;;;;5062492;28;20210;-65
2021/09/09 09:27:16;;;;;;;9.37;7.50;;;24.50;99.90;;;;;;5066844;28;20220;-65
2021/09/09 09:30:01;;;;;;;8.73;6.03;;;24.40;99.90;;;;;;5058916;28;20266;-65
2021/09/09 09:32:29;;;;;;;9.03;6.07;;;24.30;99.90;;;;;;5059716;28;20198;-65
2021/09/09 09:35:10;;;;;;;6.77;5.67;;;24.30;99.90;;;;;;5061125;28;20205;-66
2021/09/09 09:37:53;;;;;;;6.87;6.10;;;24.20;99.90;;;;;;5058987;28;20348;-66
2021/09/09 09:40:31;;;;;;;8.70;6.50;;;24.20;99.90;;;;;;5055127;28;20192;-65
2021/09/09 09:43:06;;;;;;;8.03;7.23;;;24.50;99.90;;;;;;5055489;28;20188;-66
2021/09/09 09:45:34;;;;;;;8.60;6.97;;;24.90;99.90;;;;;;5061118;28;20192;-66
2021/09/09 09:48:03;;;;;;;12.43;6.57;;;24.80;99.90;;;;;;5046818;28;20223;-67
2021/09/09 09:50:40;;;;;;;8.27;7.20;;;24.60;99.90;;;;;;5064797;28;20192;-66
2021/09/09 09:53:16;;;;;;;7.53;6.77;;;24.40;99.90;;;;;;5043190;28;20195;-66
2021/09/09 09:55:47;;;;;;;7.57;6.77;;;24.40;99.90;;;;;;5060799;28;20253;-65
2021/09/09 09:58:16;;;;;;;7.30;6.70;;;24.50;99.90;;;;;;5062544;28;20202;-66
2021/09/09 10:00:45;;;;;;;11.53;6.67;;;24.60;99.90;;;;;;5061816;28;20243;-65
2021/09/09 10:03:14;;;;;;;9.20;6.77;;;24.70;99.90;;;;;;5061999;28;20231;-65
2021/09/09 10:05:45;;;;;;;9.73;6.70;;;24.90;99.90;;;;;;5065832;28;20311;-66
2021/09/09 10:08:13;;;;;;;11.10;6.97;;;25.00;99.90;;;;;;5043111;28;20227;-66
2021/09/09 10:10:41;;;;;;;6.97;6.27;;;25.30;99.90;;;;;;5064038;28;20192;-65
2021/09/09 10:13:14;;;;;;;8.43;6.23;;;25.30;99.90;;;;;;5064710;28;20200;-65
2021/09/09 10:15:45;;;;;;;11.20;8.60;;;25.30;99.90;;;;;;5046081;28;20261;-65
2021/09/09 10:18:15;;;;;;;13.03;9.10;;;25.50;99.90;;;;;;5061826;28;20380;-65
2021/09/09 10:20:45;;;;;;;11.00;9.37;;;25.70;99.90;;;;;;5058051;28;20199;-66
2021/09/09 10:23:15;;;;;;;13.47;8.40;;;25.70;99.90;;;;;;5056123;28;20194;-66
2021/09/09 10:25:46;;;;;;;9.27;7.37;;;25.30;99.90;;;;;;5056690;28;20246;-66
2021/09/09 10:28:41;;;;;;;12.40;8.90;;;25.20;99.90;;;;;;5057556;28;20184;-65
2021/09/09 10:31:11;;;;;;;10.97;9.27;;;25.20;99.90;;;;;;5058591;28;20178;-65
2021/09/09 10:33:44;;;;;;;11.10;8.37;;;25.50;99.90;;;;;;5061019;28;20338;-65
2021/09/09 10:36:40;;;;;;;9.47;8.47;;;25.60;99.90;;;;;;5041963;28;20184;-66
2021/09/09 10:39:10;;;;;;;12.43;9.43;;;25.80;99.90;;;;;;5055715;28;22314;-66
2021/09/09 10:41:39;;;;;;;13.43;9.43;;;25.80;99.90;;;;;;5059085;28;20198;-66
2021/09/09 10:44:10;;;;;;;9.30;8.30;;;25.60;99.90;;;;;;5041508;28;20199;-66
2021/09/09 10:46:39;;;;;;;11.87;8.73;;;25.50;99.90;;;;;;5059293;28;20183;-66
2021/09/09 10:49:15;;;;;;;10.30;7.97;;;25.30;99.90;;;;;;5061244;28;20189;-66
2021/09/09 10:52:06;;;;;;;9.27;7.70;;;25.20;99.90;;;;;;5042540;28;20179;-66
2021/09/09 10:55:05;;;;;;;9.60;7.60;;;25.30;99.90;;;;;;5059738;28;20406;-66
2021/09/09 10:57:33;;;;;;;13.27;9.23;;;25.50;99.90;;;;;;5060391;28;20176;-65
2021/09/09 11:00:05;;;;;;;14.63;9.30;;;25.60;99.90;;;;;;5058262;28;20238;-65
2021/09/09 11:02:33;;;;;;;11.83;8.70;;;25.80;99.90;;;;;;5058654;28;20191;-65
2021/09/09 11:05:04;;;;;;;9.23;7.30;;;25.80;99.90;;;;;;5054254;28;20200;-66
2021/09/09 11:07:38;;;;;;;11.13;7.70;;;25.80;99.90;;;;;;5060532;28;20184;-66
2021/09/09 11:10:08;;;;;;;9.20;7.07;;;25.90;99.90;;;;;;5061017;28;20177;-66
2021/09/09 11:12:54;;;;;;;14.77;7.73;;;25.80;99.90;;;;;;5059256;28;20786;-66
2021/09/09 11:15:32;;;;;;;9.37;7.07;;;25.80;99.90;;;;;;5059465;28;20491;-66
2021/09/09 11:18:03;;;;;;;8.23;6.93;;;25.80;99.90;;;;;;5059367;28;20422;-66
2021/09/09 11:20:32;;;;;;;7.40;6.63;;;26.00;99.90;;;;;;5054864;28;20223;-66
2021/09/09 11:23:10;;;;;;;8.80;5.57;;;26.30;99.90;;;;;;5059797;28;20383;-66
2021/09/09 11:25:39;;;;;;;5.37;4.60;;;26.60;99.90;;;;;;5060600;28;20235;-66
2021/09/09 11:28:17;;;;;;;4.67;4.07;;;27.00;99.90;;;;;;5039940;28;20321;-66
2021/09/09 11:31:07;;;;;;;5.83;4.50;;;27.40;99.90;;;;;;5055521;28;20251;-66
2021/09/09 11:33:47;;;;;;;5.83;4.40;;;27.60;99.90;;;;;;5057856;28;20471;-66
2021/09/09 11:36:17;;;;;;;4.80;4.40;;;27.70;99.90;;;;;;5058836;28;20188;-66
2021/09/09 11:38:45;;;;;;;4.80;4.33;;;27.40;99.90;;;;;;5060434;28;20189;-66
2021/09/09 11:41:16;;;;;;;5.40;4.90;;;27.40;99.90;;;;;;5054712;28;20221;-66
2021/09/09 11:43:50;;;;;;;6.57;4.70;;;27.40;99.90;;;;;;5059502;28;20181;-66
2021/09/09 11:46:32;;;;;;;4.83;4.43;;;27.50;99.90;;;;;;5059942;28;20192;-66
2021/09/09 11:49:03;;;;;;;6.83;4.67;;;27.50;99.90;;;;;;5057028;28;20207;-66
2021/09/09 11:51:37;;;;;;;4.97;4.55;;;27.60;99.90;;;;;;5043446;28;20246;-66
2021/09/09 11:54:08;;;;;;;5.70;4.97;;;27.80;99.90;;;;;;5058934;28;20424;-65
2021/09/09 11:56:37;;;;;;;5.17;4.77;;;28.00;99.90;;;;;;5041210;28;20211;-65
2021/09/09 11:59:10;;;;;;;6.50;4.70;;;28.20;99.90;;;;;;5056236;28;20232;-66
2021/09/09 12:01:40;;;;;;;4.80;4.40;;;28.30;99.90;;;;;;5057187;28;20197;-65
2021/09/09 12:04:11;;;;;;;4.73;4.30;;;28.20;99.90;;;;;;5064255;28;20360;-65
2021/09/09 12:06:40;;;;;;;4.20;3.88;;;28.30;99.90;;;;;;5052539;28;20193;-65
2021/09/09 12:09:09;;;;;;;6.95;4.13;;;28.40;99.90;;;;;;5059133;28;20182;-66
2021/09/09 12:11:39;;;;;;;5.25;3.95;;;28.40;99.90;;;;;;5058743;28;20372;-66
2021/09/09 12:14:17;;;;;;;8.63;3.90;;;28.50;99.90;;;;;;5060869;28;20247;-66
2021/09/09 12:16:47;;;;;;;4.23;3.90;;;28.50;99.90;;;;;;5056202;28;20435;-65
2021/09/09 12:19:16;;;;;;;4.05;3.72;;;28.40;99.90;;;;;;5061629;28;20273;-65
2021/09/09 12:21:54;;;;;;;3.60;3.30;;;28.20;99.90;;;;;;5059192;28;20183;-65
2021/09/09 12:24:29;;;;;;;3.63;3.33;;;28.20;99.90;;;;;;5058874;28;20180;-66
2021/09/09 12:26:59;;;;;;;3.60;3.30;;;28.10;99.90;;;;;;5058562;28;20236;-65
2021/09/09 12:29:37;;;;;;;3.23;3.03;;;27.90;99.90;;;;;;5059964;28;20198;-65
2021/09/09 12:32:28;;;;;;;3.77;3.47;;;27.80;99.90;;;;;;5058422;28;20227;-66
2021/09/09 12:35:17;;;;;;;3.40;3.10;;;27.70;99.90;;;;;;5052232;28;20364;-65
2021/09/09 12:37:58;;;;;;;3.87;3.67;;;27.80;99.90;;;;;;5060771;28;20180;-65
2021/09/09 12:40:42;;;;;;;3.83;3.53;;;27.90;99.90;;;;;;5058648;28;20208;-65
2021/09/09 12:43:21;;;;;;;5.73;4.70;;;27.90;99.90;;;;;;5059474;28;20183;-65
2021/09/09 12:45:51;;;;;;;4.03;3.83;;;27.90;99.90;;;;;;5058396;28;20188;-65
2021/09/09 12:48:21;;;;;;;4.20;3.80;;;27.80;99.90;;;;;;5041443;28;20203;-64
2021/09/09 12:50:58;;;;;;;3.70;3.43;;;27.70;99.90;;;;;;5056083;28;20244;-65